Time;durP1;ratioP1;P1;durP2;ratioP2;P2;SDS_P1;SDS_P2;PMS_P1;PMS_P2;Temp;Humidity;BMP_temperature;BMP_pressure;BME280_temperature;BME280_humidity;BME280_pressure;Samples;Min_cycle;Max_cycle;Signal;HPM_P1;HPM_P2
2023/10/19 00:00:33;;;;;;;8.20;5.53;;;8.10;99.90;;;;;;5097757;28;20213;-45
2023/10/19 00:03:02;;;;;;;7.20;5.20;;;8.10;99.90;;;;;;5110026;27;20196;-44
2023/10/19 00:05:29;;;;;;;5.03;4.60;;;8.10;99.90;;;;;;5084380;27;20201;-48
2023/10/19 00:07:58;;;;;;;6.30;5.70;;;8.10;99.90;;;;;;5100341;28;20185;-49
2023/10/19 00:10:29;;;;;;;7.23;6.23;;;8.00;99.90;;;;;;5100922;27;20189;-47
2023/10/19 00:12:59;;;;;;;9.13;6.40;;;8.00;99.90;;;;;;5106038;28;20214;-44
2023/10/19 00:15:30;;;;;;;8.53;6.20;;;8.00;99.90;;;;;;5103711;27;20196;-48
2023/10/19 00:17:59;;;;;;;5.93;5.33;;;8.00;99.90;;;;;;5111406;27;20560;-47
2023/10/19 00:20:36;;;;;;;5.97;5.33;;;8.10;99.90;;;;;;5079734;27;20321;-47
2023/10/19 00:23:05;;;;;;;8.33;6.43;;;8.10;99.90;;;;;;5100734;28;20192;-45
2023/10/19 00:25:34;;;;;;;8.53;5.73;;;8.10;99.90;;;;;;5103083;27;20189;-47
2023/10/19 00:28:01;;;;;;;12.00;6.73;;;8.00;99.90;;;;;;5105581;27;20273;-46
2023/10/19 00:30:33;;;;;;;10.13;6.37;;;8.10;99.90;;;;;;5102113;27;20193;-48
2023/10/19 00:33:03;;;;;;;7.33;6.10;;;8.00;99.90;;;;;;5108156;27;20193;-44
2023/10/19 00:35:35;;;;;;;7.83;7.03;;;8.10;99.90;;;;;;5100536;27;20925;-44
2023/10/19 00:40:47;;;;;;;9.00;6.27;;;8.10;99.90;;;;;;5106359;27;20246;-44
2023/10/19 00:43:17;;;;;;;10.07;6.50;;;8.00;99.90;;;;;;5102050;27;20205;-45
2023/10/19 00:45:46;;;;;;;9.77;6.67;;;8.00;99.90;;;;;;5101455;28;20205;-43
2023/10/19 00:48:17;;;;;;;8.30;7.00;;;8.00;99.90;;;;;;5104738;27;20250;-44
2023/10/19 00:50:47;;;;;;;8.07;6.13;;;8.00;99.90;;;;;;5104925;28;20782;-45
2023/10/19 00:53:16;;;;;;;8.63;6.40;;;8.00;99.90;;;;;;5086406;27;20224;-46
2023/10/19 00:55:42;;;;;;;9.67;7.30;;;8.00;99.90;;;;;;5102566;27;20193;-44
2023/10/19 00:58:13;;;;;;;7.90;6.90;;;8.00;99.90;;;;;;5103825;27;20209;-44
2023/10/19 01:00:44;;;;;;;7.40;6.20;;;8.00;99.90;;;;;;5101798;27;20298;-45
2023/10/19 01:03:16;;;;;;;7.63;6.83;;;8.00;99.90;;;;;;5105938;27;20200;-44
2023/10/19 01:05:50;;;;;;;8.20;7.20;;;8.00;99.90;;;;;;5103307;27;20193;-46
2023/10/19 01:08:23;;;;;;;8.60;6.77;;;8.00;99.90;;;;;;5086960;27;20329;-44
2023/10/19 01:10:52;;;;;;;9.67;6.20;;;8.00;99.90;;;;;;5108860;27;20280;-44
2023/10/19 01:13:26;;;;;;;7.70;6.33;;;8.00;99.90;;;;;;5106357;27;20190;-45
2023/10/19 01:15:54;;;;;;;7.73;6.57;;;8.00;99.90;;;;;;5105562;27;20193;-44
2023/10/19 01:18:22;;;;;;;7.57;6.33;;;8.00;99.90;;;;;;5102616;27;20205;-43
2023/10/19 01:20:51;;;;;;;7.80;6.73;;;8.00;99.90;;;;;;5102499;28;20675;-45
2023/10/19 01:23:25;;;;;;;6.73;6.03;;;8.10;99.90;;;;;;5088410;27;20201;-45
2023/10/19 01:26:03;;;;;;;7.17;5.70;;;8.00;99.90;;;;;;5104241;27;20579;-46
2023/10/19 01:28:43;;;;;;;8.27;6.07;;;8.10;99.90;;;;;;5101380;27;20909;-45
2023/10/19 01:31:14;;;;;;;9.53;6.13;;;8.10;99.90;;;;;;5103525;28;20217;-46
2023/10/19 01:33:43;;;;;;;7.93;6.07;;;8.10;99.90;;;;;;5104968;27;20327;-46
2023/10/19 01:36:24;;;;;;;8.53;6.07;;;8.10;99.90;;;;;;5101860;27;20197;-44
2023/10/19 01:38:53;;;;;;;7.57;6.60;;;8.10;99.90;;;;;;5105115;27;20211;-44
2023/10/19 01:41:21;;;;;;;9.10;6.50;;;8.10;99.90;;;;;;5085525;27;20575;-50
2023/10/19 01:43:53;;;;;;;7.87;6.83;;;8.10;99.90;;;;;;5110248;27;20189;-46
2023/10/19 01:46:22;;;;;;;7.63;6.47;;;8.10;99.90;;;;;;5098666;28;20680;-46
2023/10/19 01:48:53;;;;;;;8.87;6.43;;;8.10;99.90;;;;;;5104995;27;20185;-45
2023/10/19 01:51:20;;;;;;;8.43;6.63;;;8.10;99.90;;;;;;5103054;27;20216;-46
2023/10/19 01:53:48;;;;;;;8.43;7.30;;;8.10;99.90;;;;;;5103473;28;20197;-44
2023/10/19 01:56:17;;;;;;;6.87;6.07;;;8.10;99.90;;;;;;5084428;27;20210;-45
2023/10/19 01:58:46;;;;;;;7.87;6.97;;;8.20;99.90;;;;;;5103297;28;20221;-47
2023/10/19 02:01:18;;;;;;;12.67;6.53;;;8.10;99.90;;;;;;5100823;28;20252;-47
2023/10/19 02:03:46;;;;;;;7.67;6.70;;;8.20;99.90;;;;;;5103903;28;20189;-45
2023/10/19 02:06:16;;;;;;;7.47;6.70;;;8.20;99.90;;;;;;5102270;28;20193;-47
2023/10/19 02:08:47;;;;;;;10.90;6.50;;;8.20;99.90;;;;;;5104830;27;20268;-48
2023/10/19 02:11:21;;;;;;;9.00;6.60;;;8.20;99.90;;;;;;5084358;27;20221;-46
2023/10/19 02:13:49;;;;;;;10.27;7.00;;;8.20;99.90;;;;;;5103915;27;20308;-46
2023/10/19 02:16:15;;;;;;;8.73;6.60;;;8.20;99.90;;;;;;5098473;27;20197;-46
2023/10/19 02:18:44;;;;;;;7.80;6.30;;;8.20;99.90;;;;;;5101699;27;20284;-45
2023/10/19 02:21:11;;;;;;;10.03;7.13;;;8.20;99.90;;;;;;5102026;27;20225;-46
2023/10/19 02:23:41;;;;;;;8.30;6.63;;;8.20;99.90;;;;;;5104861;27;20181;-44
2023/10/19 02:26:07;;;;;;;10.80;7.93;;;8.20;99.90;;;;;;5084447;27;20300;-45
2023/10/19 02:28:39;;;;;;;9.10;7.53;;;8.30;99.90;;;;;;5101354;28;20221;-44
2023/10/19 02:31:14;;;;;;;8.30;6.77;;;8.30;99.90;;;;;;5107420;27;20201;-48
2023/10/19 02:33:45;;;;;;;11.30;7.17;;;8.30;99.90;;;;;;5113611;27;20963;-46
2023/10/19 02:36:12;;;;;;;12.33;7.07;;;8.30;99.90;;;;;;5104049;27;20193;-47
2023/10/19 02:38:43;;;;;;;7.90;6.50;;;8.30;99.90;;;;;;5109581;27;20181;-44
2023/10/19 02:41:09;;;;;;;9.47;7.53;;;8.30;99.90;;;;;;5085351;27;20281;-44
2023/10/19 02:43:38;;;;;;;9.40;7.27;;;8.30;99.90;;;;;;5101401;27;20209;-43
2023/10/19 02:46:04;;;;;;;12.27;7.23;;;8.30;99.90;;;;;;5102012;28;20713;-45
2023/10/19 02:48:31;;;;;;;8.40;6.67;;;8.30;99.90;;;;;;5098552;27;20710;-46
2023/10/19 02:51:05;;;;;;;8.93;6.90;;;8.40;99.90;;;;;;5101562;28;20220;-46
2023/10/19 02:53:34;;;;;;;13.23;7.30;;;8.40;99.90;;;;;;5099795;28;20185;-47
2023/10/19 02:56:09;;;;;;;7.27;6.50;;;8.40;99.90;;;;;;5101444;28;20201;-45
2023/10/19 02:58:37;;;;;;;10.13;6.70;;;8.40;99.90;;;;;;5082456;27;20897;-49
2023/10/19 03:01:12;;;;;;;8.33;6.97;;;8.40;99.90;;;;;;5099947;28;20229;-51
2023/10/19 03:03:39;;;;;;;12.73;7.30;;;8.40;99.90;;;;;;5098922;28;20188;-44
2023/10/19 03:06:06;;;;;;;10.87;7.23;;;8.40;99.90;;;;;;5100675;28;20208;-52
2023/10/19 03:08:33;;;;;;;13.63;7.83;;;8.40;99.90;;;;;;5098425;27;20173;-43
2023/10/19 03:11:03;;;;;;;11.10;8.33;;;8.40;99.90;;;;;;5104674;27;20691;-42
2023/10/19 03:13:31;;;;;;;11.10;7.97;;;8.40;99.90;;;;;;5071403;28;20197;-46
2023/10/19 03:16:00;;;;;;;9.33;7.03;;;8.40;99.90;;;;;;5100932;28;20197;-42
2023/10/19 03:18:28;;;;;;;9.50;7.07;;;8.40;99.90;;;;;;5098459;28;20190;-46
2023/10/19 03:20:54;;;;;;;8.40;7.07;;;8.40;99.90;;;;;;5102461;28;20277;-44
2023/10/19 03:23:21;;;;;;;13.07;7.20;;;8.50;99.90;;;;;;5099194;28;20620;-51
2023/10/19 03:28:40;;;;;;;7.83;6.27;;;8.50;99.90;;;;;;5077819;27;21183;-45
2023/10/19 03:31:08;;;;;;;12.33;7.57;;;8.50;99.90;;;;;;5101500;28;20249;-47
2023/10/19 03:33:36;;;;;;;8.97;6.67;;;8.50;99.90;;;;;;5099761;27;21008;-43
2023/10/19 03:36:04;;;;;;;9.10;7.40;;;8.60;99.90;;;;;;5099116;28;20193;-43
2023/10/19 03:38:36;;;;;;;8.17;6.97;;;8.60;99.90;;;;;;5097221;28;20276;-44
2023/10/19 03:41:07;;;;;;;9.93;7.50;;;8.60;99.90;;;;;;5100351;28;20221;-46
2023/10/19 03:43:34;;;;;;;9.90;7.20;;;8.60;99.90;;;;;;5082269;28;20232;-47
2023/10/19 03:46:09;;;;;;;10.10;6.83;;;8.60;99.90;;;;;;5102153;28;20189;-43
2023/10/19 03:48:38;;;;;;;8.23;6.80;;;8.60;99.90;;;;;;5098203;28;20191;-46
2023/10/19 03:51:05;;;;;;;9.93;7.50;;;8.60;99.90;;;;;;5101537;28;20220;-48
2023/10/19 03:53:32;;;;;;;9.00;7.43;;;8.60;99.90;;;;;;5097019;28;20230;-45
2023/10/19 03:55:59;;;;;;;8.33;6.90;;;8.60;99.90;;;;;;5100763;28;20189;-44
2023/10/19 03:58:28;;;;;;;10.77;7.17;;;8.60;99.90;;;;;;5067294;28;20915;-44
2023/10/19 04:01:01;;;;;;;10.33;6.83;;;8.60;99.90;;;;;;5101957;28;20217;-45
2023/10/19 04:03:30;;;;;;;12.80;7.80;;;8.60;99.90;;;;;;5096674;28;21097;-44
2023/10/19 04:06:03;;;;;;;13.80;7.17;;;8.60;99.90;;;;;;5101822;28;20197;-42
2023/10/19 04:08:35;;;;;;;7.93;6.67;;;8.60;99.90;;;;;;5097976;28;20268;-43
2023/10/19 04:11:21;;;;;;;11.03;7.47;;;8.60;99.90;;;;;;5098399;28;20333;-44
2023/10/19 04:13:52;;;;;;;9.00;7.00;;;8.50;99.90;;;;;;5072370;28;20197;-49
2023/10/19 04:16:20;;;;;;;10.60;8.10;;;8.50;99.90;;;;;;5101269;28;20196;-43
2023/10/19 04:18:48;;;;;;;10.73;7.70;;;8.40;99.90;;;;;;5099437;28;20201;-50
2023/10/19 04:21:17;;;;;;;12.17;8.83;;;8.30;99.90;;;;;;5098080;28;20213;-42
2023/10/19 04:23:46;;;;;;;10.57;7.77;;;8.30;99.90;;;;;;5101345;28;20582;-49
2023/10/19 04:26:14;;;;;;;10.80;9.10;;;8.20;99.90;;;;;;5101104;28;20196;-46
2023/10/19 04:28:49;;;;;;;10.73;8.40;;;8.10;99.90;;;;;;5100443;28;20201;-49
2023/10/19 04:31:16;;;;;;;11.97;8.47;;;8.00;99.90;;;;;;5095631;28;20205;-42
2023/10/19 04:33:45;;;;;;;12.30;7.83;;;8.00;99.90;;;;;;5100742;28;20208;-49
2023/10/19 04:36:14;;;;;;;14.73;8.50;;;8.00;99.90;;;;;;5097272;28;20915;-42
2023/10/19 04:38:43;;;;;;;10.83;7.50;;;7.90;99.90;;;;;;5100919;28;20644;-47
2023/10/19 04:41:11;;;;;;;10.53;8.03;;;7.80;99.90;;;;;;5100317;28;20225;-44
2023/10/19 04:43:40;;;;;;;10.90;7.97;;;7.80;99.90;;;;;;5103305;28;20192;-44
2023/10/19 04:46:12;;;;;;;11.33;8.40;;;7.80;99.90;;;;;;5071453;27;20205;-46
2023/10/19 04:48:41;;;;;;;12.60;8.43;;;7.80;99.90;;;;;;5101501;28;20677;-47
2023/10/19 04:51:09;;;;;;;12.67;8.67;;;7.70;99.90;;;;;;5103340;27;20217;-42
2023/10/19 04:53:36;;;;;;;11.17;8.53;;;7.70;99.90;;;;;;5105227;27;20273;-45
2023/10/19 04:56:06;;;;;;;13.50;9.00;;;7.70;99.90;;;;;;5100853;27;20186;-44
2023/10/19 04:58:33;;;;;;;12.70;8.60;;;7.60;99.90;;;;;;5104460;28;20217;-48
2023/10/19 05:01:00;;;;;;;13.80;9.13;;;7.60;99.90;;;;;;5069012;27;20301;-49
2023/10/19 05:03:27;;;;;;;12.17;8.73;;;7.60;99.90;;;;;;5104729;28;20202;-43
2023/10/19 05:05:56;;;;;;;12.10;9.53;;;7.50;99.90;;;;;;5101666;27;20197;-50
2023/10/19 05:08:25;;;;;;;10.50;8.77;;;7.50;99.90;;;;;;5105900;27;20209;-49
2023/10/19 05:10:54;;;;;;;12.03;8.90;;;7.50;99.90;;;;;;5105268;27;20245;-48
2023/10/19 05:13:22;;;;;;;14.73;9.97;;;7.50;99.90;;;;;;5104219;28;20655;-43
2023/10/19 05:15:49;;;;;;;15.03;9.33;;;7.40;99.90;;;;;;5071770;27;20792;-49
2023/10/19 05:18:16;;;;;;;10.20;8.70;;;7.40;99.90;;;;;;5103066;28;20205;-46
2023/10/19 05:20:43;;;;;;;14.57;9.67;;;7.40;99.90;;;;;;5103594;28;20879;-49
2023/10/19 05:23:10;;;;;;;11.37;9.17;;;7.40;99.90;;;;;;5101442;28;20221;-43
2023/10/19 05:25:37;;;;;;;12.00;9.40;;;7.40;99.90;;;;;;5104116;28;20189;-45
2023/10/19 05:28:05;;;;;;;16.53;9.07;;;7.30;99.90;;;;;;5101813;27;20192;-48
2023/10/19 05:30:33;;;;;;;12.10;9.63;;;7.30;99.90;;;;;;5105427;27;20213;-46
2023/10/19 05:33:01;;;;;;;14.10;9.40;;;7.30;99.90;;;;;;5069228;27;20201;-46
2023/10/19 05:35:29;;;;;;;12.97;9.17;;;7.30;99.90;;;;;;5103785;28;20283;-46
2023/10/19 05:37:57;;;;;;;15.27;9.73;;;7.30;99.90;;;;;;5100487;28;20671;-48
2023/10/19 05:40:29;;;;;;;13.47;9.90;;;7.30;99.90;;;;;;5104072;27;20232;-42
2023/10/19 05:42:56;;;;;;;14.80;9.63;;;7.30;99.90;;;;;;5090760;28;20213;-46
2023/10/19 05:45:23;;;;;;;13.80;9.47;;;7.30;99.90;;;;;;5101527;27;20292;-47
2023/10/19 05:47:51;;;;;;;14.27;10.17;;;7.30;99.90;;;;;;5068250;28;20274;-49
2023/10/19 05:50:18;;;;;;;13.70;9.03;;;7.30;99.90;;;;;;5101356;27;20197;-46
2023/10/19 05:52:45;;;;;;;15.60;9.90;;;7.20;99.90;;;;;;5102280;28;20231;-49
2023/10/19 05:55:12;;;;;;;11.83;9.27;;;7.30;99.90;;;;;;5100682;28;20194;-46
2023/10/19 05:57:41;;;;;;;12.90;9.20;;;7.20;99.90;;;;;;5102447;28;20258;-49
2023/10/19 06:00:12;;;;;;;14.57;9.90;;;7.20;99.90;;;;;;5099155;28;20189;-43
2023/10/19 06:02:43;;;;;;;11.60;8.73;;;7.20;99.90;;;;;;5101774;28;20219;-51
2023/10/19 06:05:12;;;;;;;12.63;9.20;;;7.20;99.90;;;;;;5088246;27;20266;-43
2023/10/19 06:07:39;;;;;;;16.17;9.90;;;7.20;99.90;;;;;;5103001;28;20655;-48
2023/10/19 06:10:07;;;;;;;13.80;9.90;;;7.20;99.90;;;;;;5099848;28;20272;-45
2023/10/19 06:12:34;;;;;;;12.83;9.07;;;7.30;99.90;;;;;;5104336;27;20254;-42
2023/10/19 06:15:03;;;;;;;13.27;9.80;;;7.20;99.90;;;;;;5099236;27;20816;-42
2023/10/19 06:17:30;;;;;;;14.63;9.27;;;7.20;99.90;;;;;;5103706;27;20205;-45
2023/10/19 06:19:57;;;;;;;11.63;8.87;;;7.20;99.90;;;;;;5068458;27;20549;-48
2023/10/19 06:22:25;;;;;;;14.97;9.67;;;7.20;99.90;;;;;;5103648;27;20214;-48
2023/10/19 06:24:52;;;;;;;13.07;9.33;;;7.30;99.90;;;;;;5100117;28;20193;-50
2023/10/19 06:27:19;;;;;;;12.03;9.53;;;7.20;99.90;;;;;;5103307;27;20668;-42
2023/10/19 06:29:46;;;;;;;13.33;9.47;;;7.20;99.90;;;;;;5102453;27;20246;-48
2023/10/19 06:32:14;;;;;;;11.37;9.27;;;7.20;99.90;;;;;;5100951;28;20205;-42
2023/10/19 06:34:41;;;;;;;14.53;9.83;;;7.20;99.90;;;;;;5068628;28;20210;-50
2023/10/19 06:37:10;;;;;;;12.93;9.60;;;7.20;99.90;;;;;;5099997;28;20201;-43
2023/10/19 06:39:40;;;;;;;11.87;8.83;;;7.20;99.90;;;;;;5102712;28;20185;-48
2023/10/19 06:42:13;;;;;;;15.87;9.43;;;7.20;99.90;;;;;;5099487;27;20376;-46
2023/10/19 06:44:42;;;;;;;14.97;8.90;;;7.20;99.90;;;;;;5089059;28;20205;-47
2023/10/19 06:47:10;;;;;;;13.40;9.97;;;7.20;99.90;;;;;;5102657;28;21407;-43
2023/10/19 06:49:37;;;;;;;14.10;9.90;;;7.20;99.90;;;;;;5065693;27;20210;-44
2023/10/19 06:52:05;;;;;;;12.87;9.70;;;7.20;99.90;;;;;;5103393;27;20691;-45
2023/10/19 06:54:32;;;;;;;14.03;9.67;;;7.20;99.90;;;;;;5097537;28;20902;-44
2023/10/19 06:57:02;;;;;;;14.83;10.00;;;7.20;99.90;;;;;;5102518;28;20201;-47
2023/10/19 06:59:32;;;;;;;16.27;11.30;;;7.30;99.90;;;;;;5098568;28;20261;-50
2023/10/19 07:02:01;;;;;;;19.83;10.57;;;7.20;99.90;;;;;;5102671;28;20217;-44
2023/10/19 07:04:28;;;;;;;14.50;9.03;;;7.20;99.90;;;;;;5091675;28;20531;-48
2023/10/19 07:06:55;;;;;;;14.50;9.73;;;7.30;99.90;;;;;;5076836;27;20197;-44
2023/10/19 07:09:22;;;;;;;15.40;10.13;;;7.20;99.90;;;;;;5100762;27;20193;-50
2023/10/19 07:11:52;;;;;;;15.93;10.27;;;7.30;99.90;;;;;;5099586;28;20204;-46
2023/10/19 07:14:22;;;;;;;13.13;9.30;;;7.30;99.90;;;;;;5099861;27;20557;-49
2023/10/19 07:16:50;;;;;;;14.90;9.90;;;7.30;99.90;;;;;;5101033;28;20971;-44
2023/10/19 07:19:17;;;;;;;16.07;10.10;;;7.30;99.90;;;;;;5098953;28;20276;-47
2023/10/19 07:21:48;;;;;;;17.50;10.43;;;7.30;99.90;;;;;;5065368;27;20211;-44
2023/10/19 07:24:18;;;;;;;15.23;10.53;;;7.20;99.90;;;;;;5101414;28;20250;-49
2023/10/19 07:27:02;;;;;;;15.07;9.53;;;7.20;99.90;;;;;;5100285;28;20190;-48
2023/10/19 07:29:31;;;;;;;12.53;10.10;;;7.20;99.90;;;;;;5098273;28;20193;-49
2023/10/19 07:31:59;;;;;;;16.53;10.30;;;7.20;99.90;;;;;;5102391;28;20217;-43
2023/10/19 07:34:28;;;;;;;15.73;10.53;;;7.20;99.90;;;;;;5091904;28;20256;-49
2023/10/19 07:36:55;;;;;;;18.07;11.00;;;7.20;99.90;;;;;;5064376;28;20296;-43
2023/10/19 07:39:23;;;;;;;14.53;10.80;;;7.20;99.90;;;;;;5108782;27;20220;-50
2023/10/19 07:41:50;;;;;;;15.00;10.47;;;7.20;99.90;;;;;;5102161;28;20832;-43
2023/10/19 07:44:17;;;;;;;14.47;10.63;;;7.20;99.90;;;;;;5099893;28;20280;-50
2023/10/19 07:46:45;;;;;;;13.13;9.70;;;7.20;99.90;;;;;;5099683;28;20280;-43
2023/10/19 07:49:14;;;;;;;15.83;10.17;;;7.20;99.90;;;;;;5101629;28;20542;-51
2023/10/19 07:51:46;;;;;;;13.93;10.00;;;7.20;99.90;;;;;;5057860;28;20329;-44
2023/10/19 07:54:13;;;;;;;13.40;9.93;;;7.30;99.90;;;;;;5106755;28;20223;-48
2023/10/19 07:56:40;;;;;;;14.80;10.43;;;7.20;99.90;;;;;;5098355;28;20215;-43
2023/10/19 07:59:07;;;;;;;18.10;11.10;;;7.20;99.90;;;;;;5102318;28;20258;-43
2023/10/19 08:01:34;;;;;;;14.00;9.87;;;7.30;99.90;;;;;;5097990;28;20296;-45
2023/10/19 08:04:03;;;;;;;18.83;11.17;;;7.30;99.90;;;;;;5101986;28;20699;-43
2023/10/19 08:06:31;;;;;;;16.57;10.37;;;7.30;99.90;;;;;;5083216;28;20730;-49
2023/10/19 08:08:57;;;;;;;13.20;10.17;;;7.30;99.90;;;;;;5074144;27;20201;-44
2023/10/19 08:11:24;;;;;;;15.43;10.83;;;7.30;99.90;;;;;;5101837;28;20266;-51
2023/10/19 08:13:51;;;;;;;14.00;10.03;;;7.30;99.90;;;;;;5101129;28;20667;-48
2023/10/19 08:16:18;;;;;;;14.90;10.80;;;7.30;99.90;;;;;;5100496;28;20201;-51
2023/10/19 08:18:45;;;;;;;13.30;10.60;;;7.30;99.90;;;;;;5099537;28;20186;-44
2023/10/19 08:21:13;;;;;;;15.13;11.03;;;7.30;99.90;;;;;;5100889;28;20239;-50
2023/10/19 08:23:42;;;;;;;16.63;10.40;;;7.30;99.90;;;;;;5065779;27;20275;-44
2023/10/19 08:26:08;;;;;;;15.17;11.40;;;7.30;99.90;;;;;;5111056;27;20593;-42
2023/10/19 08:28:36;;;;;;;17.47;11.03;;;7.30;99.90;;;;;;5101242;27;20204;-44
2023/10/19 08:31:05;;;;;;;15.67;10.50;;;7.30;99.90;;;;;;5104065;28;20213;-47
2023/10/19 08:33:33;;;;;;;14.77;10.80;;;7.30;99.90;;;;;;5101805;27;20189;-45
2023/10/19 08:36:00;;;;;;;15.07;11.10;;;7.30;99.90;;;;;;5105148;28;20185;-42
2023/10/19 08:38:29;;;;;;;15.10;11.07;;;7.30;99.90;;;;;;5066285;27;20210;-48
2023/10/19 08:40:56;;;;;;;17.70;11.40;;;7.30;99.90;;;;;;5102840;27;20304;-43
2023/10/19 08:43:25;;;;;;;15.80;10.47;;;7.30;99.90;;;;;;5102805;28;20780;-50
2023/10/19 08:45:52;;;;;;;15.97;11.80;;;7.30;99.90;;;;;;5104323;28;20205;-45
2023/10/19 08:48:19;;;;;;;17.37;11.63;;;7.30;99.90;;;;;;5103572;28;20230;-50
2023/10/19 08:50:47;;;;;;;16.53;11.23;;;7.30;99.90;;;;;;5102909;28;20209;-43
2023/10/19 08:53:14;;;;;;;15.50;10.90;;;7.30;99.90;;;;;;5089430;28;20663;-45
2023/10/19 08:55:43;;;;;;;17.30;10.70;;;7.30;99.90;;;;;;5089705;27;20207;-42
2023/10/19 08:58:10;;;;;;;18.37;11.27;;;7.30;99.90;;;;;;5105126;28;20680;-47
2023/10/19 09:00:48;;;;;;;16.10;12.00;;;7.30;99.90;;;;;;5101249;27;20242;-48
2023/10/19 09:03:17;;;;;;;16.93;11.27;;;7.30;99.90;;;;;;5102487;28;20213;-48
2023/10/19 09:05:46;;;;;;;13.83;10.63;;;7.30;99.90;;;;;;5101459;28;20857;-48
2023/10/19 09:08:17;;;;;;;15.57;12.63;;;7.20;99.90;;;;;;5103745;28;20193;-49
2023/10/19 09:10:46;;;;;;;16.10;11.50;;;7.30;99.90;;;;;;5059286;28;20237;-46
2023/10/19 09:13:15;;;;;;;16.00;11.97;;;7.30;99.90;;;;;;5104237;28;20248;-48
2023/10/19 09:15:42;;;;;;;16.70;11.90;;;7.20;99.90;;;;;;5101546;28;20185;-46
2023/10/19 09:18:16;;;;;;;14.90;11.47;;;7.30;99.90;;;;;;5104578;28;20198;-44
2023/10/19 09:20:52;;;;;;;15.23;11.43;;;7.30;99.90;;;;;;5101310;28;20197;-44
2023/10/19 09:23:23;;;;;;;14.67;11.03;;;7.30;99.90;;;;;;5099135;28;20220;-50
2023/10/19 09:25:53;;;;;;;16.20;11.70;;;7.30;99.90;;;;;;5070990;28;20266;-49
2023/10/19 09:28:20;;;;;;;20.67;12.90;;;7.30;99.90;;;;;;5101090;28;20211;-50
2023/10/19 09:30:48;;;;;;;16.50;11.60;;;7.30;99.90;;;;;;5103002;27;20681;-44
2023/10/19 09:33:17;;;;;;;14.80;11.80;;;7.40;99.90;;;;;;5104170;27;20606;-48
2023/10/19 09:35:48;;;;;;;17.53;11.90;;;7.30;99.90;;;;;;5100000;28;20193;-44
2023/10/19 09:38:15;;;;;;;16.90;11.27;;;7.30;99.90;;;;;;5105489;27;20199;-47
2023/10/19 09:40:43;;;;;;;16.73;11.83;;;7.30;99.90;;;;;;5080738;28;21868;-44
2023/10/19 09:43:17;;;;;;;14.90;11.47;;;7.30;99.90;;;;;;5104874;28;20578;-44
2023/10/19 09:45:51;;;;;;;16.30;11.43;;;7.30;99.90;;;;;;5103420;27;20281;-43
2023/10/19 09:48:20;;;;;;;19.83;12.10;;;7.30;99.90;;;;;;5102362;27;20532;-45
2023/10/19 09:50:54;;;;;;;16.37;11.37;;;7.30;99.90;;;;;;5106095;27;20308;-44
2023/10/19 09:53:24;;;;;;;16.97;12.40;;;7.30;99.90;;;;;;5101099;27;20562;-46
2023/10/19 09:55:52;;;;;;;15.43;12.10;;;7.30;99.90;;;;;;5091090;27;20208;-46
2023/10/19 09:58:25;;;;;;;16.00;12.20;;;7.30;99.90;;;;;;5104398;27;20193;-50
2023/10/19 10:00:52;;;;;;;16.80;12.17;;;7.30;99.90;;;;;;5101435;28;20217;-45
2023/10/19 10:03:44;;;;;;;17.73;11.87;;;7.30;99.90;;;;;;5105297;27;20213;-44
2023/10/19 10:06:13;;;;;;;17.80;12.00;;;7.30;99.90;;;;;;5100569;27;20242;-46
2023/10/19 10:08:42;;;;;;;17.27;11.50;;;7.40;99.90;;;;;;5105047;27;20215;-46
2023/10/19 10:11:18;;;;;;;17.87;12.00;;;7.40;99.90;;;;;;5077582;28;20221;-46
2023/10/19 10:13:50;;;;;;;14.97;11.67;;;7.40;99.90;;;;;;5110547;27;20740;-45
2023/10/19 10:16:18;;;;;;;14.07;10.87;;;7.40;99.90;;;;;;5103028;27;20201;-48
2023/10/19 10:18:50;;;;;;;12.87;11.17;;;7.40;99.90;;;;;;5104930;27;20186;-45
2023/10/19 10:21:20;;;;;;;15.87;11.10;;;7.40;99.90;;;;;;5107737;27;20305;-46
2023/10/19 10:23:49;;;;;;;15.60;11.53;;;7.40;99.90;;;;;;5104438;27;20213;-47
2023/10/19 10:26:18;;;;;;;14.57;11.07;;;7.40;99.90;;;;;;5080207;27;20288;-44
2023/10/19 10:28:50;;;;;;;14.20;10.80;;;7.40;99.90;;;;;;5103062;27;20258;-46
2023/10/19 10:31:22;;;;;;;17.63;11.70;;;7.50;99.90;;;;;;5104874;27;20225;-47
2023/10/19 10:33:51;;;;;;;13.43;10.83;;;7.50;99.90;;;;;;5106170;27;20279;-48
2023/10/19 10:36:19;;;;;;;13.70;10.33;;;7.50;99.90;;;;;;5105901;27;20308;-45
2023/10/19 10:38:46;;;;;;;16.67;11.07;;;7.40;99.90;;;;;;5107493;27;20185;-44
2023/10/19 10:41:20;;;;;;;16.13;10.93;;;7.50;99.90;;;;;;5083924;27;20229;-44
2023/10/19 10:43:55;;;;;;;16.50;11.17;;;7.50;99.90;;;;;;5102553;27;20307;-45
2023/10/19 10:46:23;;;;;;;14.90;10.77;;;7.50;99.90;;;;;;5101892;28;20202;-44
2023/10/19 10:48:51;;;;;;;15.90;10.97;;;7.50;99.90;;;;;;5105337;27;20273;-45
2023/10/19 10:51:23;;;;;;;13.43;10.17;;;7.50;99.90;;;;;;5098972;28;20733;-44
2023/10/19 10:53:54;;;;;;;17.10;10.63;;;7.60;99.90;;;;;;5099886;28;20224;-45
2023/10/19 10:56:23;;;;;;;12.90;10.50;;;7.60;99.90;;;;;;5097761;27;20196;-46
2023/10/19 10:58:50;;;;;;;14.07;10.40;;;7.60;99.90;;;;;;5076141;27;20209;-46
2023/10/19 11:01:29;;;;;;;13.83;11.03;;;7.60;99.90;;;;;;5103050;27;20236;-46
2023/10/19 11:04:06;;;;;;;11.53;10.33;;;7.60;99.90;;;;;;5097753;28;20277;-47
2023/10/19 11:06:33;;;;;;;14.47;10.37;;;7.60;99.90;;;;;;5101924;28;20193;-46
2023/10/19 11:09:11;;;;;;;13.17;10.47;;;7.60;99.90;;;;;;5098325;28;20221;-45
2023/10/19 11:11:38;;;;;;;14.97;10.73;;;7.60;99.90;;;;;;5101652;27;20208;-46
2023/10/19 11:14:10;;;;;;;13.97;10.50;;;7.60;99.90;;;;;;5067316;27;20276;-45
2023/10/19 11:16:39;;;;;;;14.63;10.80;;;7.70;99.90;;;;;;5101894;28;20564;-45
2023/10/19 11:19:06;;;;;;;15.03;10.23;;;7.70;99.90;;;;;;5098835;28;20189;-47
2023/10/19 11:21:34;;;;;;;14.33;10.73;;;7.70;99.90;;;;;;5101464;28;20221;-46
2023/10/19 11:24:01;;;;;;;15.57;11.27;;;7.70;99.90;;;;;;5099100;28;20363;-46
2023/10/19 11:26:29;;;;;;;13.40;11.07;;;7.60;99.90;;;;;;5103124;28;20231;-45
2023/10/19 11:29:00;;;;;;;14.80;10.60;;;7.60;99.90;;;;;;5069906;27;20671;-43
2023/10/19 11:31:27;;;;;;;17.10;11.13;;;7.60;99.90;;;;;;5106240;27;20646;-51
2023/10/19 11:33:56;;;;;;;14.77;11.20;;;7.60;99.90;;;;;;5098186;28;20189;-43
2023/10/19 11:36:24;;;;;;;13.97;10.07;;;7.60;99.90;;;;;;5102370;28;20197;-49
2023/10/19 11:38:53;;;;;;;16.97;9.83;;;7.70;99.90;;;;;;5099308;28;20211;-45
2023/10/19 11:41:20;;;;;;;11.20;10.00;;;7.60;99.90;;;;;;5101520;28;20540;-52
2023/10/19 11:43:48;;;;;;;15.53;10.57;;;7.70;99.90;;;;;;5083904;28;20193;-47
2023/10/19 11:46:17;;;;;;;16.00;11.37;;;7.70;99.90;;;;;;5086609;28;20193;-48
2023/10/19 11:48:45;;;;;;;15.03;10.47;;;7.70;99.90;;;;;;5100277;28;20221;-47
2023/10/19 11:51:14;;;;;;;19.00;10.80;;;7.70;99.90;;;;;;5098617;28;20209;-47
2023/10/19 11:53:42;;;;;;;14.03;11.03;;;7.70;99.90;;;;;;5100974;28;20189;-45
2023/10/19 11:56:12;;;;;;;14.90;11.73;;;7.70;99.90;;;;;;5098673;28;20205;-47
2023/10/19 11:58:41;;;;;;;14.40;11.23;;;7.70;99.90;;;;;;5093780;27;20209;-43
2023/10/19 12:01:11;;;;;;;13.37;10.63;;;7.70;99.90;;;;;;5077558;28;20947;-43
2023/10/19 12:03:40;;;;;;;14.80;11.50;;;7.70;99.90;;;;;;5104862;27;20248;-45
2023/10/19 12:06:07;;;;;;;16.77;11.20;;;7.70;99.90;;;;;;5103412;27;20189;-44
2023/10/19 12:08:36;;;;;;;18.00;11.87;;;7.70;99.90;;;;;;5106121;28;20607;-49
2023/10/19 12:11:04;;;;;;;14.57;10.77;;;7.80;99.90;;;;;;5101238;27;20205;-52
2023/10/19 12:13:30;;;;;;;14.83;11.30;;;7.70;99.90;;;;;;5106483;27;20208;-49
2023/10/19 12:15:57;;;;;;;13.63;10.57;;;7.70;99.90;;;;;;5063154;28;21081;-49
2023/10/19 12:18:26;;;;;;;13.03;10.23;;;7.70;99.90;;;;;;5105818;28;20277;-46
2023/10/19 12:20:56;;;;;;;11.60;10.00;;;7.80;99.90;;;;;;5103149;27;20232;-43
2023/10/19 12:23:24;;;;;;;13.77;10.83;;;7.80;99.90;;;;;;5105907;27;20227;-46
2023/10/19 12:25:52;;;;;;;16.03;10.27;;;7.80;99.90;;;;;;5101588;28;20193;-46
2023/10/19 12:28:19;;;;;;;14.47;10.40;;;7.80;99.90;;;;;;5103781;28;20258;-44
2023/10/19 12:30:46;;;;;;;14.07;10.20;;;7.80;99.90;;;;;;5070176;27;20282;-46
2023/10/19 12:33:13;;;;;;;18.90;11.60;;;7.80;99.90;;;;;;5104479;27;21048;-46
2023/10/19 12:35:48;;;;;;;13.07;10.13;;;7.80;99.90;;;;;;5104604;28;20254;-42
2023/10/19 12:38:17;;;;;;;12.93;10.07;;;7.80;99.90;;;;;;5103825;28;20189;-46
2023/10/19 12:40:46;;;;;;;13.43;10.23;;;7.80;99.90;;;;;;5104195;27;20213;-43
2023/10/19 12:43:14;;;;;;;12.83;10.03;;;7.80;99.90;;;;;;5103401;28;20189;-46
2023/10/19 12:45:41;;;;;;;12.23;10.53;;;7.80;99.90;;;;;;5096898;28;20242;-42
2023/10/19 12:48:10;;;;;;;14.10;11.37;;;7.90;99.90;;;;;;5083561;27;20193;-48
2023/10/19 12:50:38;;;;;;;18.03;11.67;;;7.90;99.90;;;;;;5106175;27;20208;-44
2023/10/19 12:53:06;;;;;;;17.67;11.00;;;7.90;99.90;;;;;;5100375;28;20193;-46
2023/10/19 12:55:33;;;;;;;13.97;10.53;;;7.90;99.90;;;;;;5101498;28;20264;-43
2023/10/19 12:58:07;;;;;;;14.10;11.43;;;7.90;99.90;;;;;;5104522;28;20194;-46
2023/10/19 13:00:40;;;;;;;15.33;10.37;;;7.90;99.90;;;;;;5099095;28;20190;-47